Time;durP1;ratioP1;P1;durP2;ratioP2;P2;SDS_P1;SDS_P2;PMS_P1;PMS_P2;Temp;Humidity;BMP_temperature;BMP_pressure;BME280_temperature;BME280_humidity;BME280_pressure;Samples;Min_cycle;Max_cycle;Signal;HPM_P1;HPM_P2
2023/09/23 00:01:44;;;;;;;2.30;0.80;;;;;8.60;93672.00;;;;7398488;19;20149;-80
2023/09/23 00:04:12;;;;;;;1.10;0.73;;;;;8.40;93674.00;;;;7399340;19;20165;-82
2023/09/23 00:06:42;;;;;;;2.00;0.73;;;;;8.60;93676.00;;;;7396497;19;20164;-81
2023/09/23 00:09:18;;;;;;;0.83;0.63;;;;;8.50;93684.00;;;;7399265;19;20145;-81
2023/09/23 00:11:52;;;;;;;1.17;0.90;;;;;8.70;93682.00;;;;7398443;19;20666;-81
2023/09/23 00:14:20;;;;;;;1.30;0.90;;;;;8.60;93674.00;;;;7398866;19;20174;-81
2023/09/23 00:16:55;;;;;;;1.10;1.00;;;;;8.60;93684.00;;;;7398528;19;20703;-81
2023/09/23 00:19:26;;;;;;;1.40;0.90;;;;;8.60;93685.00;;;;7397727;19;20129;-80
2023/09/23 00:22:02;;;;;;;1.20;0.77;;;;;8.60;93695.00;;;;7400193;19;20157;-80
2023/09/23 00:24:33;;;;;;;4.60;0.97;;;;;8.50;93699.00;;;;7400006;19;20141;-81
2023/09/23 00:27:08;;;;;;;0.70;0.70;;;;;8.50;93698.00;;;;7399558;19;20143;-80
2023/09/23 00:29:36;;;;;;;2.10;0.70;;;;;8.50;93705.00;;;;7400416;19;20121;-79
2023/09/23 00:32:12;;;;;;;5.90;0.97;;;;;8.50;93710.00;;;;7398833;19;20178;-88
2023/09/23 00:34:48;;;;;;;1.57;0.90;;;;;8.40;93704.00;;;;7400962;19;20141;-82
2023/09/23 00:37:16;;;;;;;2.93;0.80;;;;;8.30;93709.00;;;;7398828;19;20165;-84
2023/09/23 00:39:53;;;;;;;0.60;0.60;;;;;8.20;93707.00;;;;7397437;19;20597;-84
2023/09/23 00:42:29;;;;;;;0.87;0.80;;;;;8.20;93716.00;;;;7399403;19;20156;-84
2023/09/23 00:44:57;;;;;;;2.53;0.83;;;;;8.20;93715.00;;;;7397636;19;20156;-85
2023/09/23 00:47:32;;;;;;;1.00;0.80;;;;;8.20;93709.00;;;;7395918;19;20557;-82
2023/09/23 00:50:17;;;;;;;0.90;0.90;;;;;8.20;93714.00;;;;7398713;19;20169;-84
2023/09/23 00:52:53;;;;;;;1.13;0.90;;;;;8.20;93702.00;;;;7399018;19;20198;-84
2023/09/23 00:55:28;;;;;;;1.77;1.00;;;;;8.20;93706.00;;;;7397499;19;20148;-83
2023/09/23 00:58:06;;;;;;;1.30;0.90;;;;;8.40;93703.00;;;;7398145;19;20174;-83
2023/09/23 01:00:44;;;;;;;0.90;0.63;;;;;8.30;93699.00;;;;7395880;19;20141;31
2023/09/23 01:03:27;;;;;;;2.43;1.00;;;;;8.40;93703.00;;;;7391516;19;20137;-75
2023/09/23 01:06:15;;;;;;;1.30;1.00;;;;;8.50;93708.00;;;;7399081;19;20151;-77
2023/09/23 01:08:51;;;;;;;2.07;0.77;;;;;8.50;93712.00;;;;7397838;19;20152;-75
2023/09/23 01:11:19;;;;;;;3.23;0.80;;;;;8.50;93708.00;;;;7397284;19;20152;-79
2023/09/23 01:13:50;;;;;;;1.53;0.80;;;;;8.50;93700.00;;;;7397504;19;20154;-74
2023/09/23 01:16:25;;;;;;;1.20;1.10;;;;;8.50;93709.00;;;;7396010;19;20141;-76
2023/09/23 01:18:59;;;;;;;1.83;0.77;;;;;8.60;93712.00;;;;7398214;19;20636;-74
2023/09/23 01:21:33;;;;;;;0.90;0.87;;;;;8.60;93713.00;;;;7396910;19;20151;-75
2023/09/23 01:24:07;;;;;;;1.23;1.10;;;;;8.70;93707.00;;;;7395622;19;20133;-75
2023/09/23 01:26:43;;;;;;;1.27;0.80;;;;;8.70;93714.00;;;;7395843;19;20234;-76
2023/09/23 01:29:17;;;;;;;0.90;0.70;;;;;8.50;93714.00;;;;7398439;19;20133;-76
2023/09/23 01:32:30;;;;;;;1.23;0.80;;;;;8.30;93716.00;;;;7395099;19;20152;-75
2023/09/23 01:35:03;;;;;;;2.27;0.80;;;;;8.20;93712.00;;;;7397848;19;20623;-75
2023/09/23 01:37:37;;;;;;;2.37;0.90;;;;;8.20;93723.00;;;;7396040;19;20148;-74
2023/09/23 01:40:19;;;;;;;1.70;0.93;;;;;8.20;93725.00;;;;7397150;19;20132;-74
2023/09/23 01:42:51;;;;;;;0.73;0.73;;;;;8.30;93719.00;;;;7395845;19;20148;-73
2023/09/23 01:45:26;;;;;;;0.90;0.80;;;;;8.30;93722.00;;;;7394206;19;20144;-74
2023/09/23 01:47:57;;;;;;;1.70;0.80;;;;;8.20;93724.00;;;;7396166;19;20468;-75
2023/09/23 01:50:33;;;;;;;1.50;0.77;;;;;8.00;93719.00;;;;7395199;19;20563;-74
2023/09/23 01:53:08;;;;;;;2.33;0.90;;;;;7.90;93719.00;;;;7395165;19;20148;-76
2023/09/23 01:55:37;;;;;;;3.50;0.90;;;;;8.00;93731.00;;;;7396187;19;20611;-76
2023/09/23 01:58:11;;;;;;;1.60;0.90;;;;;8.00;93734.00;;;;7393121;19;20135;-74
2023/09/23 02:00:39;;;;;;;1.07;0.80;;;;;7.80;93732.00;;;;7393465;19;20151;-76
2023/09/23 02:03:20;;;;;;;2.47;0.80;;;;;7.80;93741.00;;;;7393357;19;20193;-75
2023/09/23 02:05:48;;;;;;;1.13;0.67;;;;;7.70;93745.00;;;;7393893;19;20612;-74
2023/09/23 02:08:22;;;;;;;3.87;0.77;;;;;7.70;93735.00;;;;7393639;19;20636;-75
2023/09/23 02:10:52;;;;;;;1.60;0.87;;;;;7.60;93727.00;;;;7395036;19;20145;-76
2023/09/23 02:13:36;;;;;;;1.33;0.90;;;;;7.60;93722.00;;;;7395849;19;20170;-76
2023/09/23 02:16:06;;;;;;;1.00;0.90;;;;;7.60;93732.00;;;;7394445;19;20148;-74
2023/09/23 02:18:41;;;;;;;10.37;2.13;;;;;7.60;93736.00;;;;7394820;19;20148;-75
2023/09/23 02:21:09;;;;;;;2.40;0.83;;;;;7.60;93732.00;;;;7391505;19;20499;-75
2023/09/23 02:23:45;;;;;;;2.17;0.93;;;;;7.50;93747.00;;;;7394436;19;20152;-75
2023/09/23 02:26:13;;;;;;;1.53;0.90;;;;;7.40;93748.00;;;;7393770;19;20200;-76
2023/09/23 02:28:47;;;;;;;1.13;1.03;;;;;7.30;93753.00;;;;7393805;19;20173;-74
2023/09/23 02:31:16;;;;;;;0.73;0.73;;;;;7.20;93745.00;;;;7394479;19;20604;-74
2023/09/23 02:33:50;;;;;;;1.77;1.20;;;;;7.20;93745.00;;;;7393562;19;20147;-75
2023/09/23 02:36:24;;;;;;;1.47;0.90;;;;;7.10;93740.00;;;;7395668;19;20485;-76
2023/09/23 02:38:52;;;;;;;1.30;1.10;;;;;7.10;93752.00;;;;7394316;19;20141;-74
2023/09/23 02:41:26;;;;;;;1.97;0.97;;;;;7.00;93754.00;;;;7393010;19;20534;-74
2023/09/23 02:43:55;;;;;;;1.53;0.90;;;;;6.90;93750.00;;;;7394063;19;20567;-76
2023/09/23 02:46:23;;;;;;;2.00;1.00;;;;;6.90;93757.00;;;;7393850;19;20595;-76
2023/09/23 02:48:58;;;;;;;1.80;1.10;;;;;6.90;93762.00;;;;7393118;19;20128;-75
2023/09/23 02:51:27;;;;;;;4.30;1.00;;;;;6.80;93761.00;;;;7393467;19;20224;-76
2023/09/23 02:53:56;;;;;;;0.87;0.87;;;;;6.70;93765.00;;;;7393493;19;20145;-75
2023/09/23 02:56:30;;;;;;;4.57;0.93;;;;;6.60;93770.00;;;;7393494;19;20166;-76
2023/09/23 02:58:59;;;;;;;2.30;0.90;;;;;6.60;93787.00;;;;7395130;19;20647;-75
2023/09/23 03:01:42;;;;;;;1.03;0.87;;;;;6.60;93787.00;;;;7392174;19;20196;-74
2023/09/23 03:04:23;;;;;;;1.33;0.93;;;;;6.50;93787.00;;;;7393799;19;20619;-75
2023/09/23 03:07:01;;;;;;;2.97;1.00;;;;;6.40;93789.00;;;;7394900;19;20145;-75
2023/09/23 03:09:43;;;;;;;0.77;0.77;;;;;6.40;93792.00;;;;7395436;19;20143;-75
2023/09/23 03:12:19;;;;;;;1.23;1.00;;;;;6.40;93795.00;;;;7400339;19;20124;-74
2023/09/23 03:14:53;;;;;;;1.13;0.80;;;;;6.40;93801.00;;;;7402777;19;20139;-77
2023/09/23 03:17:22;;;;;;;2.00;1.50;;;;;6.40;93802.00;;;;7398682;19;20152;-74
2023/09/23 03:19:51;;;;;;;2.50;1.30;;;;;6.30;93806.00;;;;7401948;19;20127;-76
2023/09/23 03:22:25;;;;;;;1.43;1.20;;;;;6.20;93810.00;;;;7402544;19;20580;-76
2023/09/23 03:24:56;;;;;;;1.17;1.07;;;;;6.20;93807.00;;;;7399289;19;20157;-81
2023/09/23 03:27:39;;;;;;;1.30;1.20;;;;;6.30;93806.00;;;;7400487;19;20234;-80
2023/09/23 03:30:11;;;;;;;1.57;1.20;;;;;6.40;93804.00;;;;7400970;19;20181;-80
2023/09/23 03:32:50;;;;;;;1.50;1.07;;;;;6.30;93805.00;;;;7400509;19;20133;-80
2023/09/23 03:35:23;;;;;;;1.13;1.10;;;;;6.20;93795.00;;;;7401685;19;20137;-80
2023/09/23 03:37:58;;;;;;;1.73;1.30;;;;;6.00;93798.00;;;;7400299;19;20147;-79
2023/09/23 03:40:27;;;;;;;2.97;1.47;;;;;5.90;93808.00;;;;7399771;19;20663;-80
2023/09/23 03:43:01;;;;;;;2.03;1.40;;;;;5.80;93819.00;;;;7399607;19;20658;-80
2023/09/23 03:45:34;;;;;;;1.47;1.27;;;;;5.80;93818.00;;;;7398926;19;20164;-81
2023/09/23 03:48:10;;;;;;;1.90;1.20;;;;;5.70;93824.00;;;;7397653;19;20145;-80
2023/09/23 03:50:38;;;;;;;2.07;1.40;;;;;5.70;93821.00;;;;7399847;19;20129;-79
2023/09/23 03:53:12;;;;;;;1.30;1.07;;;;;5.80;93824.00;;;;7399435;19;20136;-80
2023/09/23 03:55:41;;;;;;;6.30;1.30;;;;;5.90;93833.00;;;;7400245;19;20606;-80
2023/09/23 03:58:17;;;;;;;2.87;1.20;;;;;6.00;93822.00;;;;7400086;19;20460;-81
2023/09/23 04:00:51;;;;;;;1.33;1.23;;;;;6.10;93822.00;;;;7396152;19;20231;-79
2023/09/23 04:03:25;;;;;;;1.90;1.40;;;;;6.20;93826.00;;;;7395851;19;20167;-79
2023/09/23 04:06:00;;;;;;;5.73;1.47;;;;;6.30;93829.00;;;;7399667;19;20136;-78
2023/09/23 04:08:35;;;;;;;2.27;1.37;;;;;6.40;93830.00;;;;7398036;19;20173;-79
2023/09/23 04:11:07;;;;;;;1.47;1.37;;;;;6.50;93835.00;;;;7399800;19;20152;-79
2023/09/23 04:13:44;;;;;;;1.47;1.37;;;;;6.30;93828.00;;;;7398209;19;20144;-80
2023/09/23 04:16:19;;;;;;;1.97;1.23;;;;;6.40;93830.00;;;;7398146;19;20141;-80
2023/09/23 04:18:54;;;;;;;1.60;1.37;;;;;6.30;93819.00;;;;7400024;19;20217;-79
2023/09/23 04:21:24;;;;;;;1.50;1.13;;;;;6.30;93825.00;;;;7394547;19;20493;-79
2023/09/23 04:24:00;;;;;;;1.50;1.20;;;;;6.20;93836.00;;;;7398546;19;20132;-81
2023/09/23 04:26:28;;;;;;;3.87;1.50;;;;;6.20;93836.00;;;;7398327;19;20522;-81
2023/09/23 04:29:04;;;;;;;1.20;1.10;;;;;6.20;93837.00;;;;7397886;19;20187;-81
2023/09/23 04:31:32;;;;;;;3.43;1.43;;;;;6.20;93850.00;;;;7397411;19;20144;-79
2023/09/23 04:34:00;;;;;;;1.93;1.00;;;;;6.20;93847.00;;;;7399000;19;20170;-75
2023/09/23 04:36:35;;;;;;;3.83;1.53;;;;;6.20;93852.00;;;;7397913;19;20148;-77
2023/09/23 04:39:16;;;;;;;2.77;1.43;;;;;6.20;93845.00;;;;7399129;19;20260;-77
2023/09/23 04:41:51;;;;;;;1.57;1.20;;;;;6.10;93839.00;;;;7396372;19;20169;-76
2023/09/23 04:44:25;;;;;;;3.80;1.50;;;;;6.20;93843.00;;;;7397118;19;20163;-75
2023/09/23 04:46:53;;;;;;;2.57;1.17;;;;;6.20;93846.00;;;;7397564;19;20137;-75
2023/09/23 04:49:28;;;;;;;3.90;1.30;;;;;6.20;93849.00;;;;7400166;19;20477;-75
2023/09/23 04:51:56;;;;;;;3.03;1.50;;;;;6.10;93858.00;;;;7397561;19;20155;-74
2023/09/23 04:54:30;;;;;;;5.43;1.30;;;;;6.20;93860.00;;;;7398321;19;20141;-76
2023/09/23 04:57:06;;;;;;;1.20;1.10;;;;;6.10;93869.00;;;;7397849;19;20129;-75
2023/09/23 04:59:34;;;;;;;4.50;1.00;;;;;6.10;93871.00;;;;7396503;19;20572;-76
2023/09/23 05:02:03;;;;;;;3.47;1.37;;;;;6.00;93871.00;;;;7395434;19;20499;-77
2023/09/23 05:04:45;;;;;;;1.93;1.30;;;;;6.10;93875.00;;;;7397622;19;20170;-77
2023/09/23 05:07:20;;;;;;;1.33;0.80;;;;;6.10;93880.00;;;;7396253;19;20152;-75
2023/09/23 05:09:55;;;;;;;3.27;1.27;;;;;6.10;93880.00;;;;7396743;19;20156;-75
2023/09/23 05:12:24;;;;;;;2.40;1.40;;;;;6.00;93879.00;;;;7397263;19;20192;-76
2023/09/23 05:14:58;;;;;;;5.60;1.37;;;;;6.00;93884.00;;;;7393538;19;20148;-75
2023/09/23 05:17:32;;;;;;;1.63;1.10;;;;;6.00;93881.00;;;;7398170;19;20200;-75
2023/09/23 05:20:22;;;;;;;2.60;1.10;;;;;5.90;93890.00;;;;7396464;19;20182;-76
2023/09/23 05:22:54;;;;;;;2.10;1.60;;;;;6.00;93894.00;;;;7393743;19;20145;-76
2023/09/23 05:25:28;;;;;;;2.53;1.50;;;;;6.20;93888.00;;;;7396781;19;20636;-76
2023/09/23 05:27:57;;;;;;;5.80;1.50;;;;;6.20;93901.00;;;;7396276;19;20474;-75
2023/09/23 05:30:34;;;;;;;2.67;1.40;;;;;6.20;93899.00;;;;7397011;19;20458;-78
2023/09/23 05:33:02;;;;;;;1.97;1.60;;;;;6.20;93905.00;;;;7397598;19;20148;-76
2023/09/23 05:35:30;;;;;;;2.10;1.87;;;;;6.30;93904.00;;;;7395999;19;20635;-77
2023/09/23 05:38:05;;;;;;;3.43;1.57;;;;;6.30;93904.00;;;;7394603;19;20128;-76
2023/09/23 05:40:36;;;;;;;3.17;1.73;;;;;6.40;93910.00;;;;7396110;19;20150;-76
2023/09/23 05:43:11;;;;;;;2.47;1.77;;;;;6.50;93916.00;;;;7395938;19;20464;-78
2023/09/23 05:45:46;;;;;;;3.03;1.93;;;;;6.50;93922.00;;;;7394949;19;20499;-78
2023/09/23 05:48:22;;;;;;;4.53;1.77;;;;;6.50;93913.00;;;;7396570;19;20129;-77
2023/09/23 05:51:05;;;;;;;6.17;2.77;;;;;6.50;93919.00;;;;7393538;19;20152;-77
2023/09/23 05:53:40;;;;;;;3.83;2.20;;;;;6.60;93926.00;;;;7393749;19;20149;-78
2023/09/23 05:56:08;;;;;;;3.57;1.70;;;;;6.60;93935.00;;;;7396092;19;20196;-77
2023/09/23 05:58:43;;;;;;;2.30;1.53;;;;;6.70;93931.00;;;;7396246;19;20129;-76
2023/09/23 06:01:30;;;;;;;3.70;1.60;;;;;6.60;93943.00;;;;7395769;19;20174;-80
2023/09/23 06:04:05;;;;;;;1.90;1.40;;;;;6.60;93948.00;;;;7395958;19;20236;-79
2023/09/23 06:06:40;;;;;;;2.90;1.50;;;;;6.70;93951.00;;;;7395567;19;20489;-78
2023/09/23 06:09:07;;;;;;;4.00;1.50;;;;;6.80;93963.00;;;;7394131;19;20220;-77
2023/09/23 06:11:37;;;;;;;2.33;1.47;;;;;6.80;93969.00;;;;7397409;19;20469;-78
2023/09/23 06:14:11;;;;;;;2.80;1.40;;;;;6.90;93969.00;;;;7394972;19;20152;-78
2023/09/23 06:16:48;;;;;;;7.33;1.30;;;;;7.00;93980.00;;;;7396932;19;20136;-77
2023/09/23 06:19:23;;;;;;;2.57;1.40;;;;;7.10;93981.00;;;;7395927;19;20162;-78
2023/09/23 06:21:51;;;;;;;2.73;1.53;;;;;7.20;93978.00;;;;7394504;19;20163;-79
2023/09/23 06:24:25;;;;;;;1.63;1.47;;;;;7.30;93989.00;;;;7395940;19;20157;-79
2023/09/23 06:26:58;;;;;;;3.90;1.67;;;;;7.40;93985.00;;;;7395320;19;20148;-77
2023/09/23 06:29:32;;;;;;;1.20;1.10;;;;;7.30;93986.00;;;;7394288;19;20147;-75
2023/09/23 06:31:59;;;;;;;4.30;1.30;;;;;7.40;93991.00;;;;7397548;19;20139;-77
2023/09/23 06:34:34;;;;;;;2.97;1.40;;;;;7.50;93994.00;;;;7395237;19;20163;-78
2023/09/23 06:37:04;;;;;;;3.40;1.60;;;;;7.60;94000.00;;;;7395212;19;20149;-78
2023/09/23 06:39:33;;;;;;;3.30;1.57;;;;;7.70;94004.00;;;;7393497;19;20200;-76
2023/09/23 06:42:07;;;;;;;2.07;1.40;;;;;7.70;94012.00;;;;7393770;19;20142;-78
2023/09/23 06:44:35;;;;;;;2.37;1.53;;;;;7.90;94012.00;;;;7392701;19;20151;-78
2023/09/23 06:47:11;;;;;;;2.70;1.43;;;;;8.00;94006.00;;;;7395991;19;20459;-80
2023/09/23 06:49:39;;;;;;;1.33;1.20;;;;;8.00;94022.00;;;;7393748;19;20627;-77
2023/09/23 06:52:13;;;;;;;1.57;1.27;;;;;8.10;94029.00;;;;7394642;19;20155;-78
2023/09/23 06:54:41;;;;;;;2.67;1.57;;;;;8.10;94032.00;;;;7395146;19;20137;-78
2023/09/23 06:57:15;;;;;;;3.27;1.43;;;;;8.20;94034.00;;;;7393925;19;20508;-80
2023/09/23 06:59:50;;;;;;;1.90;1.50;;;;;8.30;94032.00;;;;7397949;19;20148;-80
2023/09/23 07:02:25;;;;;;;2.70;1.53;;;;;8.40;94035.00;;;;7392802;19;20856;-78
2023/09/23 07:05:02;;;;;;;3.60;1.03;;;;;8.50;94033.00;;;;7392943;19;20149;-80
2023/09/23 07:07:30;;;;;;;4.87;1.20;;;;;8.60;94027.00;;;;7395245;19;20595;-78
2023/09/23 07:10:05;;;;;;;4.00;1.20;;;;;8.80;94024.00;;;;7395113;19;20525;-80
2023/09/23 07:12:40;;;;;;;2.47;1.30;;;;;8.90;94040.00;;;;7394634;19;20144;-80
2023/09/23 07:15:14;;;;;;;1.17;1.03;;;;;9.10;94033.00;;;;7394750;19;20168;-81
2023/09/23 07:17:42;;;;;;;2.87;1.10;;;;;9.20;94051.00;;;;7393127;19;20124;-82
2023/09/23 07:20:19;;;;;;;3.70;1.27;;;;;9.40;94051.00;;;;7393954;19;20149;-79
2023/09/23 07:22:47;;;;;;;2.47;1.50;;;;;9.40;94051.00;;;;7394716;19;20129;-80
2023/09/23 07:25:21;;;;;;;1.17;1.07;;;;;9.70;94068.00;;;;7392869;19;20456;-80
2023/09/23 07:27:49;;;;;;;1.37;1.20;;;;;9.90;94066.00;;;;7397104;19;20212;-78
2023/09/23 07:30:17;;;;;;;1.47;0.90;;;;;10.00;94075.00;;;;7392995;19;20613;-81
2023/09/23 07:32:52;;;;;;;1.20;1.07;;;;;10.20;94071.00;;;;7394148;19;20136;-80
2023/09/23 07:35:31;;;;;;;5.83;1.10;;;;;10.40;94072.00;;;;7387061;19;20129;-80
2023/09/23 07:38:06;;;;;;;1.83;1.13;;;;;10.60;94066.00;;;;7389636;19;20204;-80
2023/09/23 07:40:41;;;;;;;1.50;0.87;;;;;10.70;94073.00;;;;7387354;19;20512;-83
2023/09/23 07:43:08;;;;;;;2.83;0.80;;;;;10.90;94076.00;;;;7382273;19;20180;-76
2023/09/23 07:45:36;;;;;;;3.15;0.80;;;;;10.90;94072.00;;;;7386379;19;20542;-78
2023/09/23 07:48:10;;;;;;;1.77;0.80;;;;;11.10;94072.00;;;;7387961;19;20628;-79
2023/09/23 07:50:38;;;;;;;2.95;0.82;;;;;11.10;94077.00;;;;7388014;19;20153;-78
2023/09/23 07:53:06;;;;;;;3.55;0.95;;;;;11.20;94088.00;;;;7387222;19;20656;-79
2023/09/23 07:55:43;;;;;;;2.13;1.17;;;;;11.10;94093.00;;;;7386639;19;20136;-82
2023/09/23 07:58:11;;;;;;;1.05;0.85;;;;;11.00;94089.00;;;;7393629;19;20455;-80
2023/09/23 08:00:47;;;;;;;1.80;0.95;;;;;11.10;94091.00;;;;7393805;19;20160;-81
2023/09/23 08:03:26;;;;;;;1.30;0.90;;;;;11.00;94088.00;;;;7390652;19;20951;-74
2023/09/23 08:06:01;;;;;;;3.40;0.93;;;;;11.10;94096.00;;;;7393834;19;20533;-75
2023/09/23 08:08:29;;;;;;;1.10;0.80;;;;;11.30;94093.00;;;;7392128;19;20143;-74
2023/09/23 08:11:05;;;;;;;1.10;0.82;;;;;11.70;94090.00;;;;7393865;19;20725;-75
2023/09/23 08:13:32;;;;;;;1.25;0.88;;;;;11.60;94101.00;;;;7394413;19;20153;-73
2023/09/23 08:16:08;;;;;;;4.65;0.70;;;;;11.90;94098.00;;;;7395104;19;20505;-73
2023/09/23 08:18:38;;;;;;;1.50;0.82;;;;;12.10;94111.00;;;;7389000;19;20167;-74
2023/09/23 08:21:06;;;;;;;4.13;1.08;;;;;12.20;94119.00;;;;7393262;19;20129;-74
2023/09/23 08:23:40;;;;;;;1.92;0.80;;;;;12.30;94110.00;;;;7388649;19;20493;-75
2023/09/23 08:26:08;;;;;;;1.30;0.80;;;;;12.50;94111.00;;;;7391281;19;20608;-74
2023/09/23 08:28:45;;;;;;;5.78;0.90;;;;;12.70;94110.00;;;;7390763;19;20984;-75
2023/09/23 08:31:19;;;;;;;1.30;0.88;;;;;13.00;94127.00;;;;7392390;19;20472;-74
2023/09/23 08:33:55;;;;;;;1.13;0.93;;;;;12.90;94121.00;;;;7391781;19;20169;-75
2023/09/23 08:36:31;;;;;;;5.60;1.10;;;;;12.90;94122.00;;;;7387944;19;20905;-76
2023/09/23 08:39:09;;;;;;;3.65;1.08;;;;;13.20;94119.00;;;;7389697;19;20144;-76
2023/09/23 08:41:53;;;;;;;0.95;0.85;;;;;13.30;94130.00;;;;7388702;19;22126;-76
2023/09/23 08:44:32;;;;;;;2.20;0.90;;;;;13.40;94122.00;;;;7391686;19;20159;-76
2023/09/23 08:47:00;;;;;;;2.67;1.00;;;;;13.40;94117.00;;;;7390946;19;20176;-75
2023/09/23 08:49:36;;;;;;;1.75;0.82;;;;;13.90;94125.00;;;;7391384;19;20157;-74
2023/09/23 08:52:05;;;;;;;4.70;1.20;;;;;13.90;94123.00;;;;7389562;19;20152;-75
2023/09/23 08:54:40;;;;;;;4.63;0.90;;;;;14.20;94132.00;;;;7392703;19;20139;-75
2023/09/23 08:57:07;;;;;;;6.00;0.85;;;;;13.80;94130.00;;;;7390140;19;20600;-75
2023/09/23 08:59:43;;;;;;;4.15;0.85;;;;;13.90;94119.00;;;;7389941;19;20140;-77
2023/09/23 09:02:26;;;;;;;1.92;0.95;;;;;14.30;94124.00;;;;7394483;19;20275;-76
2023/09/23 09:05:09;;;;;;;1.35;0.70;;;;;14.20;94120.00;;;;7397716;19;20149;-74
2023/09/23 09:07:44;;;;;;;2.22;0.90;;;;;14.60;94118.00;;;;7396227;19;20465;-75
2023/09/23 09:10:12;;;;;;;1.52;0.82;;;;;14.60;94135.00;;;;7397167;19;20644;-76
2023/09/23 09:12:48;;;;;;;2.95;1.10;;;;;14.40;94133.00;;;;7397937;19;20207;-73
2023/09/23 09:15:28;;;;;;;0.85;0.75;;;;;14.70;94144.00;;;;7397522;19;20177;-79
2023/09/23 09:18:03;;;;;;;2.00;1.00;;;;;14.60;94147.00;;;;7397545;19;20142;-80
2023/09/23 09:20:37;;;;;;;2.17;1.00;;;;;13.80;94154.00;;;;7397682;19;20251;-78
2023/09/23 09:23:06;;;;;;;2.95;0.95;;;;;14.20;94135.00;;;;7394982;19;20161;-81
2023/09/23 09:25:47;;;;;;;1.80;0.93;;;;;14.80;94143.00;;;;7396111;19;20750;-77
2023/09/23 09:28:20;;;;;;;1.50;1.10;;;;;14.00;94139.00;;;;7397199;19;20485;-78
2023/09/23 09:30:59;;;;;;;2.95;1.15;;;;;13.80;94162.00;;;;7396384;19;20588;-77
2023/09/23 09:33:29;;;;;;;2.05;0.85;;;;;13.80;94158.00;;;;7396058;19;20619;-79
2023/09/23 09:36:06;;;;;;;2.30;0.90;;;;;14.20;94136.00;;;;7396928;19;20220;-79
2023/09/23 09:38:37;;;;;;;4.03;1.05;;;;;15.10;94129.00;;;;7395940;19;20167;-76
2023/09/23 09:41:21;;;;;;;2.72;1.05;;;;;15.20;94145.00;;;;7395111;19;20188;-78
2023/09/23 09:44:00;;;;;;;3.15;1.15;;;;;15.20;94157.00;;;;7392628;19;20149;-78
2023/09/23 09:46:35;;;;;;;2.60;1.33;;;;;15.20;94136.00;;;;7392036;19;20136;-78
2023/09/23 09:49:04;;;;;;;1.95;0.95;;;;;15.60;94155.00;;;;7390752;19;20137;-77
2023/09/23 09:51:40;;;;;;;3.03;1.05;;;;;15.80;94143.00;;;;7392059;19;20178;-75
2023/09/23 09:54:11;;;;;;;2.63;1.13;;;;;16.00;94156.00;;;;7392849;19;20144;-80
2023/09/23 09:56:50;;;;;;;4.15;0.90;;;;;15.00;94169.00;;;;7391655;19;20277;-78
2023/09/23 09:59:30;;;;;;;2.53;0.70;;;;;14.50;94167.00;;;;7394419;19;20505;-78
2023/09/23 10:02:06;;;;;;;3.15;1.02;;;;;14.40;94176.00;;;;7393748;19;20180;-77
2023/09/23 10:04:49;;;;;;;2.22;0.98;;;;;14.80;94171.00;;;;7393644;19;20258;-77
2023/09/23 10:07:44;;;;;;;4.22;0.93;;;;;15.10;94156.00;;;;7396419;19;20152;-78
2023/09/23 10:10:13;;;;;;;1.63;0.93;;;;;14.70;94166.00;;;;7396107;19;20169;-81
2023/09/23 10:12:51;;;;;;;3.08;1.10;;;;;14.80;94149.00;;;;7397602;19;20137;-78
2023/09/23 10:15:28;;;;;;;3.65;1.02;;;;;15.30;94147.00;;;;7397015;19;20161;-81
2023/09/23 10:18:07;;;;;;;2.55;0.63;;;;;16.00;94172.00;;;;7398267;19;20140;-78
2023/09/23 10:20:39;;;;;;;2.15;0.90;;;;;15.80;94155.00;;;;7394396;19;20157;-77
2023/09/23 10:23:16;;;;;;;0.75;0.75;;;;;16.40;94144.00;;;;7394338;19;20623;-80
2023/09/23 10:25:47;;;;;;;1.02;0.70;;;;;16.40;94152.00;;;;7397415;19;20603;-77
2023/09/23 10:28:28;;;;;;;4.80;0.95;;;;;16.90;94153.00;;;;7397680;19;20628;-79
2023/09/23 10:31:04;;;;;;;2.42;0.90;;;;;16.70;94141.00;;;;7394896;19;20618;-77
2023/09/23 10:33:38;;;;;;;2.10;0.70;;;;;16.40;94145.00;;;;7395229;19;20165;-79
2023/09/23 10:36:07;;;;;;;1.55;0.80;;;;;16.70;94156.00;;;;7397167;19;20212;-78
2023/09/23 10:38:41;;;;;;;2.13;0.90;;;;;16.80;94147.00;;;;7396485;19;20611;-79
2023/09/23 10:41:09;;;;;;;1.17;0.60;;;;;16.90;94153.00;;;;7395490;19;20165;-80
2023/09/23 10:43:51;;;;;;;3.08;1.10;;;;;16.20;94148.00;;;;7395141;19;20132;-80
2023/09/23 10:46:20;;;;;;;4.35;0.90;;;;;17.20;94152.00;;;;7394673;19;20172;-79
2023/09/23 10:48:55;;;;;;;1.67;0.73;;;;;17.60;94137.00;;;;7398005;19;20132;-80
2023/09/23 10:51:31;;;;;;;2.65;0.70;;;;;17.40;94135.00;;;;7396249;19;20462;-79
2023/09/23 10:54:06;;;;;;;2.30;0.90;;;;;17.50;94160.00;;;;7393621;19;20148;-79
2023/09/23 10:56:34;;;;;;;1.38;0.85;;;;;17.00;94169.00;;;;7395471;19;20216;-76
2023/09/23 10:59:09;;;;;;;1.20;0.63;;;;;16.10;94180.00;;;;7394613;19;20140;-80
2023/09/23 11:01:50;;;;;;;1.63;0.93;;;;;15.30;94188.00;;;;7393086;19;20209;-81
2023/09/23 11:04:25;;;;;;;1.67;0.85;;;;;14.90;94200.00;;;;7396381;19;20121;-79
2023/09/23 11:07:00;;;;;;;2.17;0.98;;;;;14.70;94192.00;;;;7396438;19;20200;-79
2023/09/23 11:09:28;;;;;;;1.35;0.77;;;;;14.70;94201.00;;;;7395925;19;20498;-80
2023/09/23 11:12:16;;;;;;;1.13;1.02;;;;;14.20;94188.00;;;;7396929;19;20192;-78
2023/09/23 11:14:45;;;;;;;0.77;0.75;;;;;14.60;94205.00;;;;7396620;19;20129;-78
2023/09/23 11:17:27;;;;;;;1.85;0.88;;;;;14.80;94194.00;;;;7393802;19;20165;-78
2023/09/23 11:19:58;;;;;;;8.52;1.25;;;;;14.40;94204.00;;;;7397485;19;20204;-77
2023/09/23 11:22:43;;;;;;;1.33;0.77;;;;;14.30;94201.00;;;;7397183;19;20160;-77
2023/09/23 11:25:19;;;;;;;2.03;0.80;;;;;14.60;94203.00;;;;7390944;19;20515;-80
2023/09/23 11:27:58;;;;;;;5.28;1.08;;;;;14.00;94202.00;;;;7394091;19;20933;-80
2023/09/23 11:30:26;;;;;;;4.68;1.00;;;;;14.70;94209.00;;;;7396327;19;20137;-80
2023/09/23 11:33:00;;;;;;;1.60;0.70;;;;;14.90;94207.00;;;;7395607;19;20151;-80
2023/09/23 11:35:29;;;;;;;1.98;0.63;;;;;14.70;94203.00;;;;7400557;19;20145;-77
2023/09/23 11:37:56;;;;;;;2.78;1.02;;;;;15.20;94166.00;;;;7390354;19;20173;-78
2023/09/23 11:40:34;;;;;;;1.33;0.70;;;;;17.50;94186.00;;;;7396201;19;20143;-77
2023/09/23 11:43:08;;;;;;;2.05;0.90;;;;;18.70;94149.00;;;;7393148;19;20129;-77
2023/09/23 11:45:37;;;;;;;3.92;0.95;;;;;18.90;94166.00;;;;7394663;19;20145;-79
2023/09/23 11:48:12;;;;;;;1.92;0.82;;;;;19.40;94166.00;;;;7391763;19;20136;-77
2023/09/23 11:50:40;;;;;;;2.22;1.15;;;;;18.50;94199.00;;;;7393827;19;20201;-76
2023/09/23 11:53:14;;;;;;;1.85;0.85;;;;;18.30;94202.00;;;;7392390;19;20565;-79
2023/09/23 11:55:49;;;;;;;1.02;0.80;;;;;17.00;94205.00;;;;7394003;19;20183;-77
2023/09/23 11:58:23;;;;;;;2.03;0.80;;;;;16.00;94209.00;;;;7391812;19;20156;-77
2023/09/23 12:00:52;;;;;;;2.85;1.00;;;;;15.70;94218.00;;;;7393644;19;20262;-76
2023/09/23 12:03:19;;;;;;;0.88;0.55;;;;;15.30;94224.00;;;;7389905;19;20229;-77
2023/09/23 12:06:01;;;;;;;2.03;0.88;;;;;15.30;94233.00;;;;7387603;19;20166;-77
2023/09/23 12:08:35;;;;;;;1.00;0.75;;;;;15.50;94239.00;;;;7393627;19;20129;-76
2023/09/23 12:11:09;;;;;;;2.50;0.95;;;;;15.50;94235.00;;;;7393003;19;20224;-77
2023/09/23 12:13:37;;;;;;;1.15;0.82;;;;;15.30;94239.00;;;;7393432;19;20168;-77
2023/09/23 12:16:12;;;;;;;1.13;0.82;;;;;15.20;94238.00;;;;7389331;19;20598;-80
2023/09/23 12:18:48;;;;;;;0.90;0.70;;;;;15.40;94237.00;;;;7390175;19;20179;-75
2023/09/23 12:21:16;;;;;;;1.83;1.08;;;;;15.20;94231.00;;;;7392951;19;20147;-81
2023/09/23 12:23:58;;;;;;;1.38;0.82;;;;;15.30;94218.00;;;;7386882;19;20154;-79
2023/09/23 12:26:32;;;;;;;4.03;1.10;;;;;16.70;94193.00;;;;7391796;19;20132;-77
2023/09/23 12:29:09;;;;;;;2.83;1.00;;;;;18.00;94213.00;;;;7389135;19;20128;-80
2023/09/23 12:31:37;;;;;;;1.17;0.88;;;;;17.10;94213.00;;;;7393815;19;20700;-78
2023/09/23 12:34:11;;;;;;;2.63;1.10;;;;;17.60;94216.00;;;;7391267;19;20160;-77
2023/09/23 12:36:46;;;;;;;6.35;1.00;;;;;17.30;94223.00;;;;7390222;19;20192;-78
2023/09/23 12:39:23;;;;;;;3.28;1.00;;;;;17.20;94227.00;;;;7390503;19;20152;-80
2023/09/23 12:41:57;;;;;;;1.30;1.15;;;;;18.30;94194.00;;;;7390569;19;20148;-79
2023/09/23 12:44:32;;;;;;;2.25;1.00;;;;;18.90;94190.00;;;;7391144;19;20140;-76
2023/09/23 12:47:06;;;;;;;4.60;1.17;;;;;20.80;94196.00;;;;7389284;19;21579;-77
2023/09/23 12:49:34;;;;;;;3.55;0.90;;;;;20.90;94194.00;;;;7393123;19;20476;-75
2023/09/23 12:52:03;;;;;;;1.20;0.70;;;;;20.40;94206.00;;;;7394572;19;20140;-76
2023/09/23 12:54:37;;;;;;;2.45;1.30;;;;;20.60;94193.00;;;;7391935;19;20234;-76
2023/09/23 12:57:13;;;;;;;1.50;0.90;;;;;21.10;94197.00;;;;7392675;19;20588;-76